Jewell, Ohio
Current Conditions -  °F | °C
As of 3:36 AM on Thursday 27 Nov 2014 (Local Time) from KDFI Reporting Station
Overcast Overcast  
Wind Chill: 21°   Ceiling: 4100
Heat Index: 30°   Visibility: 8mi
Dew Point: 24°   Wind: 10mph
Humidity: 79%   Direction: 330°NNW
Pressure: 30.13"   Gusts: NA
Location:  41.33°N, 84.29°W
Report Text: KDFI 270836Z AUTO 33009KT 8SM SCT026 OVC041 M01/M04 A3013 RMK AO2 T10111044
Loading
Personal Weather Stations






























Interactive Weather Map New forecast layout! Learn more

10-Day Weather Forecast

Advertisements
Track Severe Weather on mobile